Time;durP1;ratioP1;P1;durP2;ratioP2;P2;SDS_P1;SDS_P2;PMS_P1;PMS_P2;Temp;Humidity;BMP_temperature;BMP_pressure;BME280_temperature;BME280_humidity;BME280_pressure;Samples;Min_cycle;Max_cycle;Signal;HPM_P1;HPM_P2
2023/08/17 00:00:09;;;;;;;10.47;9.67;;;20.60;99.90;;;;;;5013386;28;20492;-78
2023/08/17 00:02:46;;;;;;;11.43;10.50;;;20.60;99.90;;;;;;5012628;28;20555;-78
2023/08/17 00:05:34;;;;;;;12.20;11.10;;;20.60;99.90;;;;;;5013655;28;20428;-76
2023/08/17 00:08:17;;;;;;;12.13;11.03;;;20.50;99.90;;;;;;5012966;28;20448;-77
2023/08/17 00:10:52;;;;;;;13.17;11.97;;;20.70;99.90;;;;;;5013604;28;20444;-78
2023/08/17 00:13:33;;;;;;;13.93;12.73;;;20.50;99.90;;;;;;5012115;28;20447;-78
2023/08/17 00:16:34;;;;;;;13.07;12.07;;;20.50;99.90;;;;;;5012469;28;20471;-77
2023/08/17 00:19:12;;;;;;;13.70;12.50;;;20.50;99.90;;;;;;5011150;28;20455;-77
2023/08/17 00:21:45;;;;;;;14.60;13.30;;;20.50;99.90;;;;;;5010973;28;20471;-79
2023/08/17 00:24:34;;;;;;;13.63;12.40;;;20.50;99.90;;;;;;5009538;28;20475;-78
2023/08/17 00:27:48;;;;;;;12.97;11.77;;;20.50;99.90;;;;;;5008526;28;20537;-78
2023/08/17 00:30:35;;;;;;;12.90;11.80;;;20.50;99.90;;;;;;4985406;28;20456;-77
2023/08/17 00:33:40;;;;;;;13.20;12.20;;;20.50;99.90;;;;;;4998945;28;20457;-77
2023/08/17 00:36:33;;;;;;;12.83;11.60;;;20.40;99.90;;;;;;4989656;28;20479;-77
2023/08/17 00:45:33;;;;;;;14.27;13.03;;;20.50;99.90;;;;;;4998589;28;20440;-77
2023/08/17 00:48:17;;;;;;;12.77;11.77;;;20.40;99.90;;;;;;4998887;28;20444;-77
2023/08/17 00:51:02;;;;;;;13.20;12.00;;;20.40;99.90;;;;;;4997641;28;20465;-77
2023/08/17 00:53:48;;;;;;;12.70;11.43;;;20.40;99.90;;;;;;4994213;28;20547;-77
2023/08/17 00:56:27;;;;;;;13.13;12.03;;;20.40;99.90;;;;;;4994264;28;20499;-77
2023/08/17 00:59:05;;;;;;;12.70;11.63;;;20.40;99.90;;;;;;4994618;28;20448;-76
2023/08/17 01:01:56;;;;;;;11.90;10.90;;;20.40;99.90;;;;;;4994524;28;20953;-78
2023/08/17 01:04:36;;;;;;;13.00;11.80;;;20.40;99.90;;;;;;4993734;28;20474;-77
2023/08/17 01:07:12;;;;;;;12.33;11.03;;;20.40;99.90;;;;;;4995443;28;20480;-78
2023/08/17 01:09:49;;;;;;;12.20;11.30;;;20.40;99.90;;;;;;4995586;28;20452;-76
2023/08/17 01:12:29;;;;;;;12.50;11.50;;;20.40;99.90;;;;;;4995809;28;20514;-77
2023/08/17 01:15:29;;;;;;;12.37;11.30;;;20.40;99.90;;;;;;4997220;28;20456;-77
2023/08/17 01:18:17;;;;;;;12.70;11.37;;;20.40;99.90;;;;;;4996715;28;20514;-77
2023/08/17 01:21:06;;;;;;;11.27;10.37;;;20.30;99.90;;;;;;4999657;28;21004;-77
2023/08/17 01:24:11;;;;;;;12.40;11.40;;;20.30;99.90;;;;;;4982547;28;20465;-76
2023/08/17 01:27:02;;;;;;;12.10;11.20;;;20.40;99.90;;;;;;4978017;28;20483;-77
2023/08/17 01:29:42;;;;;;;12.00;11.00;;;20.40;99.90;;;;;;4980768;28;20457;-77
2023/08/17 01:32:32;;;;;;;14.73;13.43;;;20.40;99.90;;;;;;4980998;28;20566;-76
2023/08/17 01:35:17;;;;;;;14.10;13.00;;;20.20;99.90;;;;;;4981583;28;20460;-77
2023/08/17 01:37:54;;;;;;;14.00;12.60;;;20.40;99.90;;;;;;5006320;28;20467;-77
2023/08/17 01:40:32;;;;;;;14.50;13.17;;;20.00;99.90;;;;;;5013233;28;20993;-77
2023/08/17 01:43:03;;;;;;;12.33;11.33;;;20.40;99.90;;;;;;5020569;28;20451;-76
2023/08/17 01:45:35;;;;;;;11.93;10.83;;;20.40;99.90;;;;;;5022393;28;20479;-76
2023/08/17 01:48:15;;;;;;;11.13;10.27;;;20.50;99.90;;;;;;5022346;28;20439;-76
2023/08/17 01:50:50;;;;;;;12.17;11.07;;;20.40;99.90;;;;;;5022206;28;20427;-76
2023/08/17 01:53:30;;;;;;;15.13;12.27;;;20.40;99.90;;;;;;5022588;28;20454;-76
2023/08/17 01:56:02;;;;;;;14.67;12.70;;;20.40;99.90;;;;;;5022971;28;20479;-77
2023/08/17 01:58:33;;;;;;;13.00;11.87;;;20.40;99.90;;;;;;5022774;28;20984;-77
2023/08/17 02:01:04;;;;;;;14.70;13.30;;;20.40;99.90;;;;;;5023477;28;20486;-76
2023/08/17 02:03:36;;;;;;;17.70;15.90;;;20.30;99.90;;;;;;5022207;28;20459;-77
2023/08/17 02:06:04;;;;;;;18.50;16.77;;;20.60;99.90;;;;;;5023557;28;20554;-77
2023/08/17 02:08:39;;;;;;;16.30;14.60;;;20.30;99.90;;;;;;5022083;28;20486;-77
2023/08/17 02:11:23;;;;;;;16.80;15.20;;;20.30;99.90;;;;;;5022879;28;20462;-77
2023/08/17 02:13:52;;;;;;;18.67;16.30;;;20.30;99.90;;;;;;5021894;28;20466;-77
2023/08/17 02:16:26;;;;;;;16.87;15.20;;;20.30;99.90;;;;;;5024671;28;20475;-77
2023/08/17 02:19:00;;;;;;;20.77;17.80;;;20.40;99.90;;;;;;5022042;28;20551;-76
2023/08/17 02:21:34;;;;;;;18.57;16.77;;;20.40;99.90;;;;;;5017969;28;21052;-76
2023/08/17 02:24:19;;;;;;;16.53;15.03;;;20.50;99.90;;;;;;5011721;28;20491;-77
2023/08/17 02:26:53;;;;;;;16.60;14.90;;;20.50;99.90;;;;;;5003210;28;20662;-77
2023/08/17 02:29:23;;;;;;;15.43;13.90;;;20.50;99.90;;;;;;5001143;28;20456;-77
2023/08/17 02:31:51;;;;;;;15.20;13.80;;;20.50;99.90;;;;;;5006493;28;20483;-78
2023/08/17 02:34:26;;;;;;;18.93;14.80;;;20.50;99.90;;;;;;5003513;28;20540;-77
2023/08/17 02:37:02;;;;;;;15.70;14.10;;;20.50;99.90;;;;;;5003715;28;20479;-77
2023/08/17 02:39:31;;;;;;;16.47;14.77;;;20.50;99.90;;;;;;5002444;28;20834;-77
2023/08/17 02:42:05;;;;;;;16.90;15.10;;;20.50;99.90;;;;;;5002798;28;20468;-77
2023/08/17 02:44:34;;;;;;;18.73;15.73;;;20.50;99.90;;;;;;5001139;28;20578;-77
2023/08/17 02:47:10;;;;;;;16.33;14.80;;;20.40;99.90;;;;;;5001871;28;20468;-77
2023/08/17 02:55:18;;;;;;;17.67;15.90;;;20.40;99.90;;;;;;4997465;28;20499;-78
2023/08/17 02:57:57;;;;;;;17.60;15.87;;;20.40;99.90;;;;;;4998884;28;20456;-78
2023/08/17 03:00:29;;;;;;;18.20;16.40;;;20.40;99.90;;;;;;4998205;28;21007;-77
2023/08/17 03:02:59;;;;;;;16.53;14.93;;;20.30;99.90;;;;;;4997129;28;20448;-77
2023/08/17 03:05:34;;;;;;;16.17;14.43;;;20.40;99.90;;;;;;4997075;28;20475;-78
2023/08/17 03:08:09;;;;;;;15.67;14.03;;;20.40;99.90;;;;;;4996761;28;20495;-76
2023/08/17 03:10:41;;;;;;;19.20;15.03;;;20.40;99.90;;;;;;4996404;28;20448;-77
2023/08/17 03:13:14;;;;;;;18.47;16.70;;;20.40;99.90;;;;;;4996679;28;20452;-77
2023/08/17 03:15:42;;;;;;;16.33;14.73;;;20.40;99.90;;;;;;4996696;28;20563;-77
2023/08/17 03:18:18;;;;;;;15.60;14.10;;;20.40;99.90;;;;;;4996610;28;20452;-77
2023/08/17 03:20:52;;;;;;;16.73;15.13;;;20.40;99.90;;;;;;4996536;28;20538;-78
2023/08/17 03:23:26;;;;;;;16.03;14.53;;;20.40;99.90;;;;;;4996327;28;20471;-77
2023/08/17 03:25:58;;;;;;;14.93;13.40;;;20.50;99.90;;;;;;4996914;28;20503;-77
2023/08/17 03:28:38;;;;;;;17.53;15.73;;;20.50;99.90;;;;;;4996891;28;20822;-77
2023/08/17 03:31:27;;;;;;;16.87;15.30;;;20.50;99.90;;;;;;4996961;28;21022;-77
2023/08/17 03:34:00;;;;;;;15.30;13.87;;;20.50;99.90;;;;;;4991046;28;20947;-76
2023/08/17 03:36:33;;;;;;;16.30;14.60;;;20.50;99.90;;;;;;4994827;28;20468;-76
2023/08/17 03:39:01;;;;;;;15.57;14.03;;;20.50;99.90;;;;;;4995476;28;20444;-77
2023/08/17 03:41:31;;;;;;;15.63;14.33;;;20.50;99.90;;;;;;4995694;28;20579;-77
2023/08/17 03:44:05;;;;;;;16.37;14.87;;;20.50;99.90;;;;;;4994886;28;20448;-77
2023/08/17 03:46:40;;;;;;;16.50;14.90;;;20.50;99.90;;;;;;4996481;28;20480;-76
2023/08/17 03:49:20;;;;;;;15.70;14.17;;;20.60;99.90;;;;;;4998310;28;20456;-76
2023/08/17 03:51:52;;;;;;;14.10;12.90;;;20.60;99.90;;;;;;4997264;28;20475;-77
2023/08/17 03:54:26;;;;;;;16.70;15.30;;;20.50;99.90;;;;;;4997274;28;20449;-76
2023/08/17 03:57:12;;;;;;;15.13;13.67;;;20.50;99.90;;;;;;4996740;28;20469;-77
2023/08/17 04:00:00;;;;;;;15.77;14.20;;;20.50;99.90;;;;;;4996906;28;20448;-76
2023/08/17 04:02:48;;;;;;;15.93;14.20;;;20.50;99.90;;;;;;4999691;28;20562;-77
2023/08/17 04:05:19;;;;;;;17.00;15.30;;;20.50;99.90;;;;;;5002743;28;20854;-77
2023/08/17 04:07:56;;;;;;;16.27;14.60;;;20.10;99.90;;;;;;4998670;28;20448;-77
2023/08/17 04:10:29;;;;;;;16.30;14.70;;;20.50;99.90;;;;;;4996785;28;20471;-78
2023/08/17 04:13:12;;;;;;;17.33;15.63;;;20.50;99.90;;;;;;4997831;28;21021;-77
2023/08/17 04:15:46;;;;;;;21.43;16.73;;;20.40;99.90;;;;;;4995783;28;20480;-77
2023/08/17 04:18:20;;;;;;;17.53;15.67;;;20.40;99.90;;;;;;4994218;28;20556;-77
2023/08/17 04:20:49;;;;;;;17.03;15.40;;;20.40;99.90;;;;;;4991545;28;20478;-77
2023/08/17 04:23:22;;;;;;;17.83;15.80;;;20.40;99.90;;;;;;4979968;28;20568;-77
2023/08/17 04:26:06;;;;;;;16.23;14.73;;;20.40;99.90;;;;;;4974598;28;20473;-77
2023/08/17 04:28:47;;;;;;;17.57;15.77;;;20.50;99.90;;;;;;4974626;28;20461;-77
2023/08/17 04:31:41;;;;;;;17.07;15.43;;;20.50;99.90;;;;;;4974390;28;20458;-77
2023/08/17 04:39:44;;;;;;;19.00;17.03;;;20.40;99.90;;;;;;4972924;28;20448;-77
2023/08/17 04:42:29;;;;;;;18.40;16.60;;;20.40;99.90;;;;;;4974492;28;20485;-77
2023/08/17 04:45:13;;;;;;;19.43;17.47;;;20.40;99.90;;;;;;4974602;28;20536;-78
2023/08/17 04:48:07;;;;;;;20.73;16.70;;;20.30;99.90;;;;;;4975481;28;20457;-78
2023/08/17 04:50:42;;;;;;;18.50;16.63;;;20.30;99.90;;;;;;4976926;28;20430;-77
2023/08/17 04:53:11;;;;;;;19.20;17.20;;;20.40;99.90;;;;;;4975613;28;20475;-77
2023/08/17 04:55:47;;;;;;;17.53;15.70;;;20.30;99.90;;;;;;4978181;28;20893;-78
2023/08/17 05:01:22;;;;;;;20.20;17.30;;;20.50;99.90;;;;;;4975773;28;20516;-76
2023/08/17 05:04:22;;;;;;;20.07;17.93;;;20.50;99.90;;;;;;4983958;28;20492;-77
2023/08/17 05:06:52;;;;;;;19.67;17.60;;;20.50;99.90;;;;;;4979253;28;20498;-76
2023/08/17 05:12:23;;;;;;;28.80;16.10;;;20.50;99.90;;;;;;4968271;28;20433;-77
2023/08/17 05:15:19;;;;;;;17.17;15.33;;;20.50;99.90;;;;;;4984447;28;20483;-76
2023/08/17 05:17:51;;;;;;;16.97;15.17;;;20.60;99.90;;;;;;4989575;28;20465;-76
2023/08/17 05:20:21;;;;;;;18.43;16.73;;;20.70;99.90;;;;;;4990814;28;20509;-78
2023/08/17 05:22:59;;;;;;;17.10;15.20;;;20.90;99.90;;;;;;4999792;28;20487;-77
2023/08/17 05:25:33;;;;;;;17.87;16.07;;;20.70;99.90;;;;;;5010282;28;20468;-78
2023/08/17 05:28:09;;;;;;;17.23;15.53;;;20.70;99.90;;;;;;5011481;28;20432;-78
2023/08/17 05:30:38;;;;;;;15.63;14.17;;;20.70;99.90;;;;;;5011161;28;20432;-77
2023/08/17 05:33:06;;;;;;;16.03;14.43;;;20.70;99.90;;;;;;5010567;28;20456;-76
2023/08/17 05:35:46;;;;;;;16.40;14.73;;;20.80;99.90;;;;;;5011389;28;20488;-76
2023/08/17 05:45:19;;;;;;;17.80;16.20;;;20.80;99.90;;;;;;4874095;27;6836625;-77
2023/08/17 05:48:13;;;;;;;17.53;15.30;;;20.70;99.90;;;;;;5081441;28;20474;-77
2023/08/17 05:53:42;;;;;;;18.70;16.80;;;20.80;99.90;;;;;;5061725;28;20505;-76
2023/08/17 05:56:14;;;;;;;19.43;17.63;;;20.90;99.90;;;;;;5074596;28;20496;-78
2023/08/17 05:59:06;;;;;;;18.27;16.30;;;20.90;99.90;;;;;;5077232;28;20456;-76
2023/08/17 06:01:40;;;;;;;17.20;15.27;;;20.80;99.90;;;;;;5077144;28;20838;-78
2023/08/17 06:04:20;;;;;;;17.83;16.23;;;20.80;99.90;;;;;;5080622;28;20512;-77
2023/08/17 06:06:58;;;;;;;17.00;15.47;;;20.90;99.90;;;;;;5082404;28;20468;-77
2023/08/17 06:09:32;;;;;;;17.63;15.87;;;20.90;99.90;;;;;;5080923;28;20521;-76
2023/08/17 06:12:03;;;;;;;17.73;15.87;;;21.00;99.90;;;;;;5079294;28;20522;-77
2023/08/17 06:14:38;;;;;;;16.77;15.30;;;21.10;99.90;;;;;;5083525;28;20453;-77
2023/08/17 06:17:11;;;;;;;17.27;15.77;;;21.10;99.90;;;;;;5083620;28;20534;-78
2023/08/17 06:20:09;;;;;;;16.50;14.90;;;21.10;99.90;;;;;;5084604;28;20491;-77
2023/08/17 06:23:08;;;;;;;16.77;15.23;;;21.20;99.90;;;;;;5085352;28;20481;-77
2023/08/17 06:26:07;;;;;;;16.77;15.17;;;21.30;99.90;;;;;;5084603;28;20533;-78
2023/08/17 06:28:58;;;;;;;18.47;16.77;;;21.30;99.90;;;;;;5085735;28;20843;-79
2023/08/17 06:34:41;;;;;;;18.17;15.63;;;21.50;99.90;;;;;;5075796;28;20436;-77
2023/08/17 06:37:21;;;;;;;16.40;14.70;;;21.50;99.90;;;;;;5070729;28;20468;-77
2023/08/17 06:39:50;;;;;;;17.50;15.90;;;21.60;99.90;;;;;;5070098;28;21053;-77
2023/08/17 06:42:21;;;;;;;16.53;15.03;;;21.60;99.90;;;;;;5070680;28;20459;-78
2023/08/17 06:44:51;;;;;;;16.90;15.17;;;21.70;99.90;;;;;;5070692;28;20568;-79
2023/08/17 06:47:22;;;;;;;19.73;16.57;;;21.70;99.90;;;;;;5070227;28;20460;-77
2023/08/17 06:49:51;;;;;;;16.10;14.70;;;21.80;99.90;;;;;;5068315;28;20465;-77
2023/08/17 06:52:20;;;;;;;16.93;15.43;;;21.60;99.90;;;;;;5062870;28;20548;-76
2023/08/17 06:54:48;;;;;;;16.70;15.10;;;21.80;99.90;;;;;;5041932;28;20448;-77
2023/08/17 06:57:15;;;;;;;17.07;15.37;;;21.70;99.90;;;;;;5054553;28;20461;-75
2023/08/17 06:59:52;;;;;;;19.40;17.60;;;21.80;99.90;;;;;;5057334;28;20483;-77
2023/08/17 07:05:14;;;;;;;22.00;18.17;;;21.90;99.90;;;;;;5052893;28;20457;-77
2023/08/17 07:07:48;;;;;;;19.97;18.17;;;21.90;99.90;;;;;;5057215;28;20510;-78
2023/08/17 07:10:27;;;;;;;19.70;17.80;;;22.00;99.90;;;;;;5056648;28;20433;-78
2023/08/17 07:12:58;;;;;;;20.03;18.13;;;22.10;99.90;;;;;;5056741;28;20449;-78
2023/08/17 07:15:26;;;;;;;19.37;17.70;;;22.10;99.90;;;;;;5056836;28;20493;-79
2023/08/17 07:17:57;;;;;;;20.53;18.40;;;22.20;99.90;;;;;;5055803;28;20446;-77
2023/08/17 07:20:28;;;;;;;20.60;18.80;;;22.30;99.90;;;;;;5056126;28;20464;-79
2023/08/17 07:23:02;;;;;;;20.37;18.50;;;22.40;99.90;;;;;;5056819;28;20545;-77
2023/08/17 07:25:32;;;;;;;21.13;19.03;;;22.40;99.90;;;;;;5056823;28;20475;-76
2023/08/17 07:28:05;;;;;;;20.70;18.63;;;22.30;99.90;;;;;;5056819;28;20540;-77
2023/08/17 07:33:38;;;;;;;20.70;18.77;;;22.40;99.90;;;;;;5052922;28;21028;-78
2023/08/17 07:36:12;;;;;;;19.27;17.50;;;22.60;99.90;;;;;;5056724;28;20470;-77
2023/08/17 07:38:47;;;;;;;16.80;15.40;;;22.80;99.90;;;;;;5056519;28;20857;-77
2023/08/17 07:41:20;;;;;;;17.47;15.87;;;23.10;99.90;;;;;;5056610;28;20558;-76
2023/08/17 07:43:54;;;;;;;16.63;15.13;;;23.30;99.90;;;;;;5057606;28;20512;-77
2023/08/17 07:46:22;;;;;;;16.37;14.87;;;23.30;99.90;;;;;;5057306;28;20997;-77
2023/08/17 07:48:59;;;;;;;14.70;13.40;;;23.50;99.90;;;;;;5058115;28;21000;-76
2023/08/17 07:51:29;;;;;;;13.80;12.60;;;23.60;99.90;;;;;;5058984;28;20781;-78
2023/08/17 07:53:59;;;;;;;15.53;14.13;;;23.70;99.90;;;;;;5060648;28;20491;-77
2023/08/17 07:56:40;;;;;;;15.13;13.90;;;23.60;99.90;;;;;;5059149;28;20456;-76
2023/08/17 07:59:13;;;;;;;17.00;15.60;;;23.60;99.90;;;;;;5056765;28;20475;-78
2023/08/17 08:01:42;;;;;;;15.93;14.43;;;23.60;99.90;;;;;;5056876;28;20972;-76
2023/08/17 08:04:18;;;;;;;16.77;14.83;;;23.70;99.90;;;;;;5055176;28;20473;-77
2023/08/17 08:06:52;;;;;;;17.40;15.87;;;23.80;99.90;;;;;;5054686;28;20969;-76
2023/08/17 08:09:24;;;;;;;16.97;15.57;;;23.70;99.90;;;;;;5056002;28;20606;-78
2023/08/17 08:12:00;;;;;;;15.53;14.03;;;23.40;99.90;;;;;;5059183;28;20477;-76
2023/08/17 08:14:45;;;;;;;15.77;14.37;;;23.40;99.90;;;;;;5058927;28;20973;-76
2023/08/17 08:17:19;;;;;;;14.57;13.37;;;23.60;99.90;;;;;;5058109;28;20857;-78
2023/08/17 08:19:54;;;;;;;14.30;13.10;;;24.10;99.90;;;;;;5057621;28;20961;-78
2023/08/17 08:25:16;;;;;;;15.13;13.83;;;24.40;99.90;;;;;;5046861;28;20505;-76
2023/08/17 08:27:47;;;;;;;14.37;13.17;;;24.30;99.90;;;;;;5053827;28;21118;-75
2023/08/17 08:30:16;;;;;;;14.70;13.50;;;24.10;99.90;;;;;;5053777;28;20438;-77
2023/08/17 08:32:47;;;;;;;14.90;13.50;;;24.20;99.90;;;;;;5051872;28;20450;-77
2023/08/17 08:35:15;;;;;;;14.20;12.90;;;24.50;99.90;;;;;;5052347;28;20537;-77
2023/08/17 08:37:49;;;;;;;13.47;12.10;;;24.80;99.90;;;;;;5033311;28;20423;-77
2023/08/17 08:40:27;;;;;;;14.10;12.80;;;25.00;99.90;;;;;;5033508;28;20462;-76
2023/08/17 08:43:17;;;;;;;15.03;13.53;;;25.20;99.90;;;;;;5046599;28;20536;-77
2023/08/17 08:45:49;;;;;;;14.50;13.27;;;25.20;99.90;;;;;;5053381;28;20872;-77
2023/08/17 08:48:29;;;;;;;15.80;14.40;;;25.00;99.90;;;;;;5053772;28;20457;-77
2023/08/17 08:51:00;;;;;;;15.07;13.73;;;25.10;99.90;;;;;;5055293;28;20460;-76
2023/08/17 08:53:56;;;;;;;14.50;13.30;;;24.80;99.90;;;;;;5055037;28;20447;-76
2023/08/17 08:56:35;;;;;;;13.03;12.13;;;25.20;99.90;;;;;;5048833;28;20473;-79
2023/08/17 08:59:26;;;;;;;14.73;13.43;;;25.80;99.90;;;;;;5055968;28;20450;-79
2023/08/17 09:01:56;;;;;;;12.87;11.60;;;26.10;99.90;;;;;;5052935;28;20448;-78
2023/08/17 09:04:24;;;;;;;13.47;12.33;;;26.40;99.90;;;;;;5051531;28;20726;-77
2023/08/17 09:06:56;;;;;;;12.60;11.50;;;26.50;99.90;;;;;;5052456;28;20547;-78
2023/08/17 09:09:27;;;;;;;11.57;10.50;;;26.70;99.90;;;;;;5053829;28;20528;-78
2023/08/17 09:12:02;;;;;;;12.47;11.37;;;27.00;99.90;;;;;;5053279;28;20819;-78
2023/08/17 09:14:33;;;;;;;12.60;11.60;;;27.20;99.90;;;;;;5053196;28;20445;-80
2023/08/17 09:17:04;;;;;;;14.03;12.97;;;27.30;99.90;;;;;;5049310;28;20480;-81
2023/08/17 09:19:40;;;;;;;12.13;11.13;;;27.40;99.90;;;;;;5054073;28;20442;-77
2023/08/17 09:22:16;;;;;;;13.43;12.23;;;27.40;99.90;;;;;;5053551;28;20476;-78
2023/08/17 09:24:49;;;;;;;11.97;10.77;;;27.40;99.90;;;;;;5053627;28;20477;-77
2023/08/17 09:27:42;;;;;;;11.73;10.73;;;27.50;99.90;;;;;;5054113;28;20473;-78
2023/08/17 09:30:15;;;;;;;12.90;11.90;;;27.90;99.90;;;;;;5054012;28;20449;-78
2023/08/17 09:32:49;;;;;;;11.80;10.83;;;28.10;99.90;;;;;;5051952;28;20442;-79
2023/08/17 09:35:17;;;;;;;13.90;12.70;;;28.10;99.90;;;;;;5056322;28;20449;-80
2023/08/17 09:37:50;;;;;;;12.97;11.67;;;28.00;99.90;;;;;;5054563;28;20438;-80
2023/08/17 09:40:21;;;;;;;12.23;11.10;;;28.10;99.90;;;;;;5054779;28;20457;-79
2023/08/17 09:42:54;;;;;;;12.37;11.13;;;28.50;99.90;;;;;;5054538;28;20487;-78
2023/08/17 09:45:25;;;;;;;13.30;12.20;;;28.80;99.90;;;;;;5047230;28;20478;-78
2023/08/17 09:47:56;;;;;;;13.33;12.23;;;28.50;99.90;;;;;;5055121;28;20438;-78
2023/08/17 09:50:25;;;;;;;11.40;10.40;;;28.70;99.90;;;;;;5054691;28;20444;-77
2023/08/17 09:52:55;;;;;;;11.10;10.30;;;29.00;99.90;;;;;;5053523;28;20540;-78
2023/08/17 09:55:24;;;;;;;13.40;12.13;;;29.30;99.90;;;;;;5054705;28;20441;-80
2023/08/17 09:57:54;;;;;;;13.00;10.83;;;29.50;99.90;;;;;;5055119;28;20442;-76
2023/08/17 10:00:25;;;;;;;10.73;9.70;;;29.50;99.90;;;;;;5054003;28;20436;-77
2023/08/17 10:02:56;;;;;;;11.57;9.80;;;29.60;99.90;;;;;;5051749;28;20465;-78
2023/08/17 10:05:38;;;;;;;11.20;10.40;;;29.60;99.90;;;;;;5054249;28;20481;-77
2023/08/17 10:08:11;;;;;;;10.70;9.70;;;29.80;99.90;;;;;;5054677;28;20518;-79
2023/08/17 10:10:46;;;;;;;10.47;9.67;;;30.10;99.90;;;;;;5055191;28;20537;-79
2023/08/17 10:13:26;;;;;;;11.20;10.30;;;29.90;99.90;;;;;;5053560;28;20447;-79
2023/08/17 10:16:02;;;;;;;10.17;9.20;;;29.90;99.90;;;;;;5060345;28;20448;-78
2023/08/17 10:18:37;;;;;;;12.03;10.77;;;29.90;99.90;;;;;;5061000;28;20545;-77
2023/08/17 10:21:14;;;;;;;11.70;10.73;;;29.90;99.90;;;;;;5059244;28;20499;-77
2023/08/17 10:23:52;;;;;;;12.07;11.07;;;29.90;99.90;;;;;;5059779;28;20450;-78
2023/08/17 10:26:37;;;;;;;10.70;10.00;;;29.80;99.90;;;;;;5061658;28;20469;-79
2023/08/17 10:29:10;;;;;;;11.33;10.43;;;30.20;99.90;;;;;;5060821;28;20445;-78
2023/08/17 10:31:49;;;;;;;11.30;10.40;;;30.60;99.90;;;;;;5061950;28;20433;-79
2023/08/17 10:34:17;;;;;;;13.77;12.57;;;30.80;99.90;;;;;;5064250;28;20443;-77
2023/08/17 10:36:48;;;;;;;11.87;10.97;;;30.30;99.90;;;;;;5061409;28;20461;-78
2023/08/17 10:39:26;;;;;;;15.03;12.47;;;29.80;99.90;;;;;;5060075;28;20472;-78
2023/08/17 10:42:04;;;;;;;11.43;10.33;;;30.30;99.90;;;;;;5059442;28;20414;-77
2023/08/17 10:45:21;;;;;;;10.73;9.73;;;30.30;99.90;;;;;;5059814;28;20484;-78
2023/08/17 10:48:23;;;;;;;11.70;10.80;;;30.70;99.90;;;;;;4999866;28;20551;-79
2023/08/17 10:56:50;;;;;;;11.83;10.83;;;30.80;99.90;;;;;;5068800;28;20460;-79
2023/08/17 10:59:33;;;;;;;10.87;9.77;;;30.60;99.90;;;;;;5070154;28;20437;-80
2023/08/17 11:02:09;;;;;;;10.70;9.73;;;30.90;99.90;;;;;;5070496;28;20456;-81
2023/08/17 11:04:53;;;;;;;12.87;10.20;;;31.10;99.90;;;;;;5070252;28;20480;-79
2023/08/17 11:07:27;;;;;;;11.50;10.53;;;31.30;99.90;;;;;;5063236;28;20465;-81
2023/08/17 11:10:03;;;;;;;10.83;9.80;;;31.30;99.90;;;;;;5066142;28;20440;-80
2023/08/17 11:12:34;;;;;;;10.13;9.43;;;31.10;99.90;;;;;;5064481;28;20496;-77
2023/08/17 11:15:05;;;;;;;10.30;9.47;;;31.40;99.90;;;;;;5059758;28;20426;-79
2023/08/17 11:17:37;;;;;;;9.07;8.33;;;31.80;99.90;;;;;;5060049;28;20426;-80
2023/08/17 11:20:09;;;;;;;10.23;9.43;;;32.00;99.90;;;;;;5060046;28;20442;-79
2023/08/17 11:22:36;;;;;;;10.83;9.93;;;32.40;99.90;;;;;;5057568;28;20480;-80
2023/08/17 11:25:06;;;;;;;10.83;9.57;;;32.20;99.90;;;;;;5058102;28;20465;-81
2023/08/17 11:27:35;;;;;;;11.07;10.07;;;31.80;99.90;;;;;;5061042;28;20521;-78
2023/08/17 11:30:03;;;;;;;10.70;9.80;;;31.80;99.90;;;;;;5061001;28;20554;-81
2023/08/17 11:32:31;;;;;;;10.60;9.70;;;31.20;99.90;;;;;;5059177;28;20509;-78
2023/08/17 11:35:01;;;;;;;9.77;9.00;;;30.90;99.90;;;;;;5059470;28;20445;-78
2023/08/17 11:37:31;;;;;;;10.13;9.40;;;30.90;99.90;;;;;;5058439;28;20465;-78
2023/08/17 11:39:58;;;;;;;9.80;9.10;;;30.90;99.90;;;;;;5061065;28;20497;-78
2023/08/17 11:42:30;;;;;;;10.03;8.67;;;31.40;99.90;;;;;;5060225;28;20457;-81
2023/08/17 11:45:00;;;;;;;10.13;9.43;;;32.00;99.90;;;;;;5061016;28;20477;-78
2023/08/17 11:47:32;;;;;;;8.80;8.00;;;32.70;99.90;;;;;;5060653;28;20557;-82
2023/08/17 11:50:07;;;;;;;10.67;9.27;;;33.20;99.90;;;;;;5060042;28;20460;-82
2023/08/17 11:52:38;;;;;;;10.20;9.30;;;32.70;99.90;;;;;;5061786;28;20449;-81
2023/08/17 11:55:09;;;;;;;9.83;9.03;;;32.30;99.90;;;;;;5061451;28;20446;-79
2023/08/17 11:57:41;;;;;;;9.67;8.87;;;32.10;99.90;;;;;;5060795;28;20477;-80
2023/08/17 12:00:12;;;;;;;8.70;7.90;;;32.40;99.90;;;;;;5061165;28;20828;-81
2023/08/17 12:02:43;;;;;;;10.07;9.30;;;32.80;99.90;;;;;;5061008;28;20453;-81
2023/08/17 12:05:14;;;;;;;11.30;8.03;;;32.40;99.90;;;;;;5063840;28;20474;-81
2023/08/17 12:07:55;;;;;;;8.23;7.53;;;32.10;99.90;;;;;;5062337;28;20457;-79
2023/08/17 12:10:23;;;;;;;10.90;10.10;;;32.00;99.90;;;;;;5061011;28;20453;-79
2023/08/17 12:12:52;;;;;;;10.03;9.23;;;31.70;99.90;;;;;;5059266;28;20446;-80
2023/08/17 12:15:25;;;;;;;12.27;11.07;;;31.30;99.90;;;;;;5062880;28;20943;-81
2023/08/17 12:18:02;;;;;;;11.27;10.43;;;31.10;99.90;;;;;;5061360;28;20449;-79
2023/08/17 12:20:38;;;;;;;11.40;10.40;;;31.30;99.90;;;;;;5047031;28;20445;-80
2023/08/17 12:23:07;;;;;;;10.80;9.80;;;30.70;99.90;;;;;;5060073;28;20463;-79
2023/08/17 12:25:35;;;;;;;12.43;11.40;;;31.20;99.90;;;;;;5057576;28;20582;-80
2023/08/17 12:28:09;;;;;;;10.27;9.57;;;31.00;99.90;;;;;;5056839;28;20469;-79
2023/08/17 12:30:37;;;;;;;12.90;12.00;;;30.60;99.90;;;;;;5056526;28;20476;-78
2023/08/17 12:33:10;;;;;;;13.47;12.47;;;30.40;99.90;;;;;;5056278;28;20466;-79
2023/08/17 12:35:38;;;;;;;12.47;10.97;;;29.70;99.90;;;;;;5057106;28;20462;-80
2023/08/17 12:38:13;;;;;;;12.13;11.07;;;;;;;;;;5056072;28;20800;-80
2023/08/17 12:40:50;;;;;;;11.33;10.50;;;29.80;99.90;;;;;;5058053;28;20457;-78
2023/08/17 12:43:18;;;;;;;13.13;12.00;;;29.80;99.90;;;;;;5054871;28;20460;-82
2023/08/17 12:45:49;;;;;;;11.53;10.63;;;29.20;99.90;;;;;;5055364;28;21063;-78
2023/08/17 12:48:22;;;;;;;11.83;10.63;;;29.20;99.90;;;;;;5054511;28;20897;-79
2023/08/17 12:50:56;;;;;;;11.03;10.03;;;29.50;99.90;;;;;;5053862;28;21037;-79
2023/08/17 12:53:32;;;;;;;10.63;9.53;;;29.70;99.90;;;;;;5053265;28;21030;-81
2023/08/17 12:56:08;;;;;;;11.00;10.20;;;29.80;99.90;;;;;;5054374;28;20465;-81
2023/08/17 12:58:38;;;;;;;10.40;9.60;;;29.20;99.90;;;;;;5054532;28;20913;-81
2023/08/17 13:01:05;;;;;;;10.10;9.30;;;28.60;99.90;;;;;;5053811;28;20801;-79
2023/08/17 13:03:33;;;;;;;10.57;9.77;;;28.40;99.90;;;;;;5055384;28;20866;-79
2023/08/17 13:06:01;;;;;;;9.13;8.43;;;28.00;99.90;;;;;;5055140;28;20482;-83
2023/08/17 13:08:30;;;;;;;9.10;8.40;;;27.90;99.90;;;;;;5056488;28;20668;-80
2023/08/17 13:10:58;;;;;;;9.27;8.57;;;28.00;99.90;;;;;;5034730;28;20474;-79
2023/08/17 13:13:26;;;;;;;9.17;8.30;;;27.90;99.90;;;;;;5034829;28;20798;-83
2023/08/17 13:15:56;;;;;;;8.50;7.87;;;27.90;99.90;;;;;;5051489;28;20484;-80
2023/08/17 13:18:28;;;;;;;9.00;8.20;;;27.80;99.90;;;;;;5037793;28;20441;-79
2023/08/17 13:20:57;;;;;;;8.33;7.57;;;27.60;99.90;;;;;;5054725;28;20542;-79
2023/08/17 13:23:28;;;;;;;8.30;7.70;;;27.50;99.90;;;;;;5054012;28;20457;-80
2023/08/17 13:25:57;;;;;;;7.87;7.37;;;27.50;99.90;;;;;;5053374;28;20855;-81
2023/08/17 13:28:24;;;;;;;8.13;7.43;;;27.30;99.90;;;;;;5053899;28;20453;-79
2023/08/17 13:30:52;;;;;;;7.63;7.07;;;27.20;99.90;;;;;;5055100;28;20792;-80
2023/08/17 13:33:20;;;;;;;8.13;7.50;;;27.20;99.90;;;;;;5055187;28;20548;-79
2023/08/17 13:35:48;;;;;;;7.80;7.10;;;27.20;99.90;;;;;;5057488;28;20515;-82
2023/08/17 13:38:16;;;;;;;8.33;7.77;;;27.30;99.90;;;;;;5056831;28;20450;-79
2023/08/17 13:40:47;;;;;;;9.10;8.50;;;26.60;99.90;;;;;;5055691;28;20476;-79
2023/08/17 13:43:17;;;;;;;8.80;8.07;;;26.10;99.90;;;;;;5056338;28;20485;-78
2023/08/17 13:45:45;;;;;;;9.40;8.70;;;26.00;99.90;;;;;;5057507;28;20481;-78
2023/08/17 13:48:12;;;;;;;9.40;8.50;;;26.00;99.90;;;;;;5058937;28;20430;-79
2023/08/17 13:50:40;;;;;;;9.60;8.80;;;25.70;99.90;;;;;;5056611;28;21206;-80
2023/08/17 13:53:08;;;;;;;8.80;8.10;;;26.10;99.90;;;;;;5055841;28;20442;-80
2023/08/17 13:55:53;;;;;;;10.17;9.17;;;26.00;99.90;;;;;;5058226;28;20469;-78
2023/08/17 13:58:21;;;;;;;10.37;9.47;;;25.80;99.90;;;;;;5040128;28;20515;-81
2023/08/17 14:01:11;;;;;;;10.20;9.50;;;25.60;99.90;;;;;;5055031;28;20461;-82
2023/08/17 14:03:44;;;;;;;10.63;9.83;;;25.50;99.90;;;;;;5053869;28;20513;-78